createdAt,value
2022-12-11T00:00:05.697Z,98508.25
2022-12-11T00:02:32.317Z,98513.59
2022-12-11T00:04:59.072Z,98509.56
2022-12-11T00:07:25.756Z,98513.28
2022-12-11T00:09:52.346Z,98519.66
2022-12-11T00:12:20.373Z,98513.28
2022-12-11T00:14:46.951Z,98505.56
2022-12-11T00:17:13.585Z,98506.88
2022-12-11T00:19:40.144Z,98508.44
2022-12-11T00:22:06.871Z,98506.03
2022-12-11T00:24:33.626Z,98510.03
2022-12-11T00:27:00.201Z,98514.00
2022-12-11T00:29:28.166Z,98512.38
2022-12-11T00:31:54.844Z,98503.84
2022-12-11T00:34:21.456Z,98496.09
2022-12-11T00:36:48.016Z,98498.75
2022-12-11T00:39:14.611Z,98499.53
2022-12-11T00:41:41.181Z,98497.91
2022-12-11T00:44:07.692Z,98500.81
2022-12-11T00:46:35.821Z,98504.53
2022-12-11T00:49:02.378Z,98511.16
2022-12-11T00:51:28.994Z,98507.94
2022-12-11T00:53:55.584Z,98513.00
2022-12-11T00:56:23.425Z,98516.72
2022-12-11T00:58:50.324Z,98515.09
2022-12-11T01:01:19.479Z,98516.97
2022-12-11T01:03:48.159Z,98514.56
2022-12-11T01:06:16.302Z,98505.25
2022-12-11T01:08:43.178Z,98514.78
2022-12-11T01:11:12.258Z,98511.53
2022-12-11T01:13:39.611Z,98524.50
2022-12-11T01:16:08.106Z,98515.44
2022-12-11T01:18:34.641Z,98522.31
2022-12-11T01:21:07.724Z,98521.50
2022-12-11T01:23:34.652Z,98523.38
2022-12-11T01:26:05.753Z,98522.06
2022-12-11T01:28:32.280Z,98520.78
2022-12-11T01:30:58.985Z,98515.72
2022-12-11T01:33:26.516Z,98523.22
2022-12-11T01:35:53.266Z,98520.59
2022-12-11T01:38:21.254Z,98526.47
2022-12-11T01:40:54.093Z,98527.81
2022-12-11T01:43:20.724Z,98521.97
2022-12-11T01:45:48.750Z,98519.06
2022-12-11T01:48:20.366Z,98522.03
2022-12-11T01:50:50.612Z,98529.22
2022-12-11T01:53:22.684Z,98532.19
2022-12-11T01:55:51.421Z,98529.53
2022-12-11T01:58:20.114Z,98535.13
2022-12-11T02:00:46.847Z,98529.25
2022-12-11T02:03:14.100Z,98538.84
2022-12-11T02:05:43.970Z,98522.88
2022-12-11T02:08:11.160Z,98527.38
2022-12-11T02:10:48.883Z,98519.97
2022-12-11T02:13:21.126Z,98534.31
2022-12-11T02:15:55.478Z,98529.25
2022-12-11T02:18:31.064Z,98527.38
2022-12-11T02:21:03.234Z,98529.25
2022-12-11T02:24:00.485Z,98523.44
2022-12-11T02:27:11.239Z,98520.50
2022-12-11T02:29:49.008Z,98523.97
2022-12-11T02:32:21.247Z,98521.06
2022-12-11T02:34:54.778Z,98518.94
2022-12-11T02:37:24.551Z,98524.25
2022-12-11T02:39:54.442Z,98513.34
2022-12-11T02:42:21.962Z,98513.34
2022-12-11T02:44:52.383Z,98504.56
2022-12-11T02:47:21.302Z,98503.50
2022-12-11T02:49:50.098Z,98504.06
2022-12-11T02:52:20.271Z,98505.38
2022-12-11T02:54:48.809Z,98505.69
2022-12-11T02:57:19.147Z,98508.09
2022-12-11T02:59:46.644Z,98503.56
2022-12-11T03:02:17.018Z,98502.50
2022-12-11T03:04:44.543Z,98504.09
2022-12-11T03:07:15.368Z,98512.63
2022-12-11T03:09:43.800Z,98514.22
2022-12-11T03:12:13.197Z,98511.81
2022-12-11T03:14:42.234Z,98503.56
2022-12-11T03:17:15.215Z,98519.28
2022-12-11T03:19:50.009Z,98513.41
2022-12-11T03:22:20.425Z,98513.16
2022-12-11T03:24:52.953Z,98509.41
2022-12-11T03:27:26.944Z,98511.31
2022-12-11T03:29:59.020Z,98508.38
2022-12-11T03:32:31.269Z,98516.09
2022-12-11T03:35:03.460Z,98515.59
2022-12-11T03:37:34.524Z,98507.34
2022-12-11T03:40:07.421Z,98521.19
2022-12-11T03:42:34.743Z,98515.09
2022-12-11T03:45:03.708Z,98522.81
2022-12-11T03:47:33.564Z,98521.19
2022-12-11T03:50:03.801Z,98527.59
2022-12-11T03:52:31.651Z,98523.84
2022-12-11T03:55:03.901Z,98525.47
2022-12-11T03:57:35.547Z,98508.97
2022-12-11T04:00:02.963Z,98522.00
2022-12-11T04:02:31.032Z,98516.66
2022-12-11T04:04:57.582Z,98510.28
2022-12-11T04:07:24.324Z,98509.25
2022-12-11T04:09:50.900Z,98507.13
2022-12-11T04:12:17.461Z,98507.94
2022-12-11T04:14:44.149Z,98500.75
2022-12-11T04:17:10.741Z,98503.66
2022-12-11T04:19:38.603Z,98503.41
2022-12-11T04:22:05.261Z,98506.06
2022-12-11T04:24:31.840Z,98505.81
2022-12-11T04:26:58.409Z,98497.84
2022-12-11T04:29:25.083Z,98502.09
2022-12-11T04:31:51.615Z,98505.56
2022-12-11T04:34:18.106Z,98501.03
2022-12-11T04:36:46.184Z,98507.44
2022-12-11T04:39:12.857Z,98503.44
2022-12-11T04:41:39.363Z,98492.25
2022-12-11T04:44:05.856Z,98497.31
2022-12-11T04:46:32.490Z,98494.91
2022-12-11T04:48:59.160Z,98495.19
2022-12-11T04:51:25.858Z,98487.44
2022-12-11T04:53:53.705Z,98474.38
2022-12-11T04:56:21.296Z,98476.28
2022-12-11T04:58:48.343Z,98480.53
2022-12-11T05:01:17.090Z,98485.31
2022-12-11T05:03:44.074Z,98481.84
2022-12-11T05:06:12.024Z,98478.13
2022-12-11T05:08:40.704Z,98480.00
2022-12-11T05:11:10.949Z,98476.53
2022-12-11T05:13:37.625Z,98475.47
2022-12-11T05:16:05.036Z,98472.53
2022-12-11T05:18:31.882Z,98473.34
2022-12-11T05:21:00.014Z,98467.75
2022-12-11T05:23:27.381Z,98466.41
2022-12-11T05:25:54.010Z,98469.88
2022-12-11T05:28:22.940Z,98463.47
2022-12-11T05:30:49.446Z,98462.97
2022-12-11T05:33:15.945Z,98460.06
2022-12-11T05:35:47.469Z,98462.47
2022-12-11T05:38:14.117Z,98452.59
2022-12-11T05:40:40.703Z,98465.66
2022-12-11T05:43:07.286Z,98464.03
2022-12-11T05:45:35.370Z,98466.69
2022-12-11T05:48:01.961Z,98465.66
2022-12-11T05:50:28.626Z,98466.19
2022-12-11T05:52:55.182Z,98472.06
2022-12-11T05:55:21.879Z,98469.41
2022-12-11T05:57:49.036Z,98469.41
2022-12-11T06:00:15.604Z,98464.59
2022-12-11T06:02:43.619Z,98467.81
2022-12-11T06:05:10.691Z,98468.84
2022-12-11T06:07:37.519Z,98468.84
2022-12-11T06:10:04.631Z,98459.00
2022-12-11T06:12:31.261Z,98463.53
2022-12-11T06:14:57.761Z,98469.66
2022-12-11T06:17:24.501Z,98470.97
2022-12-11T06:19:52.556Z,98476.88
2022-12-11T06:22:19.308Z,98476.88
2022-12-11T06:24:46.027Z,98470.19
2022-12-11T06:27:12.580Z,98465.41
2022-12-11T06:29:39.194Z,98464.59
2022-12-11T06:32:05.763Z,98466.47
2022-12-11T06:34:32.338Z,98464.59
2022-12-11T06:37:00.236Z,98453.16
2022-12-11T06:39:26.954Z,98457.66
2022-12-11T06:41:53.499Z,98459.28
2022-12-11T06:44:20.145Z,98459.28
2022-12-11T06:46:46.821Z,98461.13
2022-12-11T06:49:13.355Z,98462.19
2022-12-11T06:51:39.978Z,98471.78
2022-12-11T06:54:07.922Z,98469.41
2022-12-11T06:56:35.251Z,98464.84
2022-12-11T06:59:07.109Z,98467.50
2022-12-11T07:01:34.300Z,98469.41
2022-12-11T07:04:00.910Z,98468.31
2022-12-11T07:06:28.298Z,98473.66
2022-12-11T07:08:55.566Z,98472.84
2022-12-11T07:11:23.666Z,98469.41
2022-12-11T07:13:50.926Z,98472.59
2022-12-11T07:16:17.835Z,98466.75
2022-12-11T07:18:47.665Z,98460.88
2022-12-11T07:21:14.452Z,98453.69
2022-12-11T07:23:41.677Z,98451.03
2022-12-11T07:26:10.668Z,98455.56
2022-12-11T07:28:39.146Z,98457.16
2022-12-11T07:31:06.726Z,98454.00
2022-12-11T07:33:33.365Z,98460.13
2022-12-11T07:36:01.443Z,98459.31
2022-12-11T07:38:28.119Z,98460.13
2022-12-11T07:40:54.686Z,98462.78
2022-12-11T07:43:21.297Z,98454.28
2022-12-11T07:45:49.319Z,98456.41
2022-12-11T07:48:15.969Z,98457.53
2022-12-11T07:50:42.473Z,98457.53
2022-12-11T07:53:09.144Z,98455.41
2022-12-11T07:55:35.669Z,98466.06
2022-12-11T07:58:02.429Z,98467.94
2022-12-11T08:00:29.070Z,98470.59
2022-12-11T08:02:57.011Z,98466.31
2022-12-11T08:05:23.731Z,98472.44
2022-12-11T08:07:50.260Z,98469.03
2022-12-11T08:10:17.256Z,98466.38
2022-12-11T08:12:43.766Z,98459.44
2022-12-11T08:15:11.301Z,98463.19
2022-12-11T08:17:40.145Z,98461.59
2022-12-11T08:20:09.747Z,98465.34
2022-12-11T08:22:36.325Z,98466.44
2022-12-11T08:25:03.050Z,98457.34
2022-12-11T08:27:29.645Z,98455.22
2022-12-11T08:29:56.193Z,98469.38
2022-12-11T08:32:22.867Z,98465.91
2022-12-11T08:34:51.321Z,98469.91
2022-12-11T08:37:19.291Z,98462.50
2022-12-11T08:39:45.846Z,98465.97
2022-12-11T08:42:12.427Z,98456.63
2022-12-11T08:44:38.968Z,98461.19
2022-12-11T08:47:05.492Z,98453.69
2022-12-11T08:49:34.646Z,98455.84
2022-12-11T08:52:02.502Z,98466.25
2022-12-11T08:54:30.506Z,98461.97
2022-12-11T08:56:58.322Z,98458.50
2022-12-11T08:59:25.310Z,98460.91
2022-12-11T09:01:51.986Z,98456.91
2022-12-11T09:04:18.527Z,98463.03
2022-12-11T09:06:45.042Z,98465.44
2022-12-11T09:09:11.598Z,98463.06
2022-12-11T09:11:39.584Z,98467.59
2022-12-11T09:14:07.876Z,98462.25
2022-12-11T09:16:36.412Z,98457.72
2022-12-11T09:19:03.942Z,98467.03
2022-12-11T09:21:30.922Z,98462.81
2022-12-11T09:23:59.381Z,98471.31
2022-12-11T09:26:27.125Z,98460.66
2022-12-11T09:28:55.259Z,98465.72
2022-12-11T09:31:24.738Z,98475.56
2022-12-11T09:33:54.601Z,98456.91
2022-12-11T09:36:21.306Z,98470.50
2022-12-11T09:38:47.880Z,98467.03
2022-12-11T09:41:32.677Z,98465.69
2022-12-11T09:44:06.612Z,98466.75
2022-12-11T09:46:34.921Z,98469.69
2022-12-11T09:49:03.227Z,98466.78
2022-12-11T09:51:36.486Z,98454.78
2022-12-11T09:54:04.718Z,98454.25
2022-12-11T09:56:35.927Z,98457.19
2022-12-11T09:59:18.467Z,98460.91
2022-12-11T10:01:50.505Z,98457.72
2022-12-11T10:04:40.320Z,98453.72
2022-12-11T10:07:13.691Z,98460.94
2022-12-11T10:09:48.245Z,98455.84
2022-12-11T10:12:30.302Z,98456.66
2022-12-11T10:15:19.551Z,98461.47
2022-12-11T10:17:47.348Z,98460.69
2022-12-11T10:20:20.393Z,98461.22
2022-12-11T10:22:48.311Z,98467.09
2022-12-11T10:25:21.426Z,98450.53
2022-12-11T10:27:48.241Z,98451.34
2022-12-11T10:30:18.675Z,98435.34
2022-12-11T10:32:54.309Z,98445.78
2022-12-11T10:35:31.312Z,98439.09
2022-12-11T10:38:10.192Z,98439.63
2022-12-11T10:40:38.496Z,98435.34
2022-12-11T10:43:05.117Z,98435.34
2022-12-11T10:45:33.067Z,98432.66
2022-12-11T10:48:04.464Z,98432.94
2022-12-11T10:50:31.245Z,98433.22
2022-12-11T10:52:58.334Z,98425.44
2022-12-11T10:55:28.266Z,98419.31
2022-12-11T10:57:58.285Z,98414.50
2022-12-11T11:00:36.210Z,98420.38
2022-12-11T11:03:04.771Z,98413.16
2022-12-11T11:05:33.707Z,98411.84
2022-12-11T11:08:12.582Z,98420.66
2022-12-11T11:10:50.430Z,98414.78
2022-12-11T11:13:17.171Z,98419.84
2022-12-11T11:15:45.427Z,98412.66
2022-12-11T11:18:16.821Z,98401.72
2022-12-11T11:20:47.857Z,98400.41
2022-12-11T11:23:16.411Z,98402.25
2022-12-11T11:25:51.386Z,98400.66
2022-12-11T11:28:20.477Z,98400.63
2022-12-11T11:30:58.793Z,98400.63
2022-12-11T11:33:25.566Z,98398.78
2022-12-11T11:35:54.171Z,98391.28
2022-12-11T11:38:24.599Z,98391.84
2022-12-11T11:41:00.746Z,98385.72
2022-12-11T11:43:37.864Z,98392.34
2022-12-11T11:46:12.113Z,98388.91
2022-12-11T11:48:49.775Z,98385.94
2022-12-11T11:51:23.260Z,98384.09
2022-12-11T11:53:52.800Z,98373.94
2022-12-11T11:56:22.611Z,98383.56
2022-12-11T11:58:57.220Z,98377.94
2022-12-11T12:01:26.328Z,98378.75
2022-12-11T12:03:53.370Z,98375.28
2022-12-11T12:06:28.966Z,98377.16
2022-12-11T12:09:03.311Z,98370.72
2022-12-11T12:11:37.810Z,98372.84
2022-12-11T12:14:43.563Z,98372.06
2022-12-11T12:17:13.067Z,98371.25
2022-12-11T12:19:46.966Z,98371.00
2022-12-11T12:22:26.608Z,98370.19
2022-12-11T12:25:02.715Z,98369.91
2022-12-11T12:27:52.993Z,98363.25
2022-12-11T12:30:23.320Z,98365.91
2022-12-11T12:33:06.121Z,98367.50
2022-12-11T12:35:35.927Z,98364.59
2022-12-11T12:38:10.897Z,98369.16
2022-12-11T12:40:50.125Z,98365.16
2022-12-11T12:43:33.769Z,98364.88
2022-12-11T12:46:08.769Z,98366.22
2022-12-11T12:48:36.719Z,98359.53
2022-12-11T12:51:04.302Z,98361.94
2022-12-11T12:53:34.886Z,98355.00
2022-12-11T12:56:03.327Z,98364.06
2022-12-11T12:58:41.564Z,98363.28
2022-12-11T13:01:09.906Z,98361.69
2022-12-11T13:03:50.593Z,98367.00
2022-12-11T13:06:29.137Z,98369.13
2022-12-11T13:08:56.089Z,98363.81
2022-12-11T13:11:32.443Z,98368.06
2022-12-11T13:14:03.560Z,98363.53
2022-12-11T13:16:36.689Z,98365.13
2022-12-11T13:19:17.319Z,98365.13
2022-12-11T13:21:55.815Z,98365.97
2022-12-11T13:24:26.957Z,98360.31
2022-12-11T13:26:53.794Z,98366.47
2022-12-11T13:29:35.155Z,98361.94
2022-12-11T13:32:05.234Z,98360.59
2022-12-11T13:34:35.607Z,98362.22
2022-12-11T13:37:03.806Z,98364.59
2022-12-11T13:39:32.074Z,98368.59
2022-12-11T13:42:04.689Z,98371.53
2022-12-11T13:44:34.289Z,98375.28
2022-12-11T13:47:04.172Z,98363.81
2022-12-11T13:49:36.995Z,98366.47
2022-12-11T13:52:05.582Z,98367.81
2022-12-11T13:54:34.601Z,98374.47
2022-12-11T13:57:04.491Z,98367.00
2022-12-11T13:59:35.786Z,98372.06
2022-12-11T14:02:15.185Z,98372.34
2022-12-11T14:04:43.566Z,98364.88
2022-12-11T14:07:11.576Z,98364.63
2022-12-11T14:09:43.551Z,98374.50
2022-12-11T14:12:17.287Z,98369.16
2022-12-11T14:14:47.092Z,98373.94
2022-12-11T14:17:14.697Z,98367.00
2022-12-11T14:19:46.672Z,98374.50
2022-12-11T14:22:19.712Z,98372.63
2022-12-11T14:24:50.927Z,98378.75
2022-12-11T14:27:18.076Z,98382.25
2022-12-11T14:29:44.824Z,98379.56
2022-12-11T14:32:19.887Z,98372.91
2022-12-11T14:34:49.639Z,98374.75
2022-12-11T14:37:19.081Z,98371.84
2022-12-11T14:39:50.581Z,98370.22
2022-12-11T14:42:20.401Z,98370.22
2022-12-11T14:44:51.285Z,98375.03
2022-12-11T14:47:21.512Z,98376.63
2022-12-11T14:49:53.892Z,98378.78
2022-12-11T14:52:25.649Z,98377.19
2022-12-11T14:54:56.672Z,98373.19
2022-12-11T14:57:27.565Z,98384.66
2022-12-11T14:59:54.911Z,98383.31
2022-12-11T15:02:26.073Z,98377.72
2022-12-11T15:05:06.241Z,98373.44
2022-12-11T15:07:33.356Z,98372.09
2022-12-11T15:09:59.930Z,98386.00
2022-12-11T15:12:26.674Z,98377.44
2022-12-11T15:14:55.557Z,98382.78
2022-12-11T15:17:23.959Z,98388.38
2022-12-11T15:19:53.615Z,98387.56
2022-12-11T15:22:23.811Z,98386.50
2022-12-11T15:24:52.447Z,98385.72
2022-12-11T15:27:25.516Z,98388.63
2022-12-11T15:29:52.357Z,98384.38
2022-12-11T15:32:20.926Z,98389.19
2022-12-11T15:34:50.186Z,98385.72
2022-12-11T15:37:28.778Z,98385.19
2022-12-11T15:39:57.085Z,98386.00
2022-12-11T15:42:26.485Z,98390.25
2022-12-11T15:44:53.687Z,98388.13
2022-12-11T15:47:22.854Z,98389.97
2022-12-11T15:49:49.492Z,98392.66
2022-12-11T15:52:16.139Z,98398.25
2022-12-11T15:54:44.028Z,98400.91
2022-12-11T15:57:16.645Z,98397.44
2022-12-11T15:59:44.737Z,98398.50
2022-12-11T16:02:12.378Z,98400.66
2022-12-11T16:04:39.055Z,98410.25
2022-12-11T16:07:06.728Z,98410.25
2022-12-11T16:09:33.295Z,98406.78
2022-12-11T16:12:01.218Z,98415.59
2022-12-11T16:14:27.740Z,98407.59
2022-12-11T16:16:54.315Z,98407.59
2022-12-11T16:19:20.922Z,98409.47
2022-12-11T16:21:47.447Z,98408.38
2022-12-11T16:24:13.997Z,98411.03
2022-12-11T16:26:40.564Z,98408.38
2022-12-11T16:29:08.430Z,98411.56
2022-12-11T16:31:34.969Z,98400.66
2022-12-11T16:34:01.483Z,98407.59
2022-12-11T16:36:28.060Z,98403.59
2022-12-11T16:38:54.646Z,98402.53
2022-12-11T16:41:21.539Z,98406.25
2022-12-11T16:43:48.223Z,98401.72
2022-12-11T16:46:17.327Z,98402.78
2022-12-11T16:48:44.613Z,98408.13
2022-12-11T16:51:11.166Z,98399.84
2022-12-11T16:53:37.805Z,98409.72
2022-12-11T16:56:04.855Z,98401.72
2022-12-11T16:58:31.381Z,98401.47
2022-12-11T17:00:57.928Z,98402.53
2022-12-11T17:03:25.829Z,98402.25
2022-12-11T17:05:52.562Z,98408.13
2022-12-11T17:08:19.129Z,98403.59
2022-12-11T17:10:45.725Z,98404.13
2022-12-11T17:13:12.719Z,98400.91
2022-12-11T17:15:40.357Z,98401.97
2022-12-11T17:18:07.165Z,98407.31
2022-12-11T17:20:35.193Z,98400.38
2022-12-11T17:23:01.858Z,98396.09
2022-12-11T17:25:28.404Z,98407.31
2022-12-11T17:27:55.452Z,98411.31
2022-12-11T17:30:22.033Z,98406.78
2022-12-11T17:32:48.893Z,98404.91
2022-12-11T17:35:15.536Z,98401.69
2022-12-11T17:37:43.447Z,98411.56
2022-12-11T17:40:11.050Z,98404.63
2022-12-11T17:42:37.612Z,98411.06
2022-12-11T17:45:04.834Z,98411.31
2022-12-11T17:47:31.672Z,98410.25
2022-12-11T17:49:58.199Z,98408.66
2022-12-11T17:52:27.344Z,98410.50
2022-12-11T17:54:58.785Z,98407.84
2022-12-11T17:57:25.370Z,98403.31
2022-12-11T17:59:53.686Z,98400.09
2022-12-11T18:02:20.260Z,98402.75
2022-12-11T18:04:46.802Z,98399.28
2022-12-11T18:07:13.730Z,98396.63
2022-12-11T18:09:40.941Z,98406.78
2022-12-11T18:12:10.244Z,98408.38
2022-12-11T18:14:37.428Z,98408.38
2022-12-11T18:17:04.100Z,98407.59
2022-12-11T18:19:30.627Z,98407.59
2022-12-11T18:21:57.695Z,98402.25
2022-12-11T18:24:24.234Z,98396.13
2022-12-11T18:26:50.766Z,98404.13
2022-12-11T18:29:18.629Z,98408.91
2022-12-11T18:31:45.214Z,98406.22
2022-12-11T18:34:11.781Z,98407.31
2022-12-11T18:36:38.630Z,98400.34
2022-12-11T18:39:05.155Z,98409.69
2022-12-11T18:41:31.684Z,98410.47
2022-12-11T18:43:59.583Z,98405.94
2022-12-11T18:46:27.565Z,98405.66
2022-12-11T18:48:54.236Z,98401.91
2022-12-11T18:51:22.170Z,98403.25
2022-12-11T18:53:48.697Z,98402.41
2022-12-11T18:56:17.318Z,98398.13
2022-12-11T18:58:44.271Z,98394.97
2022-12-11T19:01:15.533Z,98399.50
2022-12-11T19:03:43.607Z,98399.75
2022-12-11T19:06:12.621Z,98402.94
2022-12-11T19:08:39.715Z,98396.03
2022-12-11T19:11:07.326Z,98406.41
2022-12-11T19:13:34.522Z,98404.56
2022-12-11T19:16:01.815Z,98404.00
2022-12-11T19:18:28.660Z,98405.06
2022-12-11T19:21:06.460Z,98402.41
2022-12-11T19:23:35.258Z,98402.41
2022-12-11T19:26:01.827Z,98404.28
2022-12-11T19:28:28.569Z,98407.44
2022-12-11T19:30:55.106Z,98398.66
2022-12-11T19:33:21.760Z,98399.44
2022-12-11T19:35:48.339Z,98398.91
2022-12-11T19:38:16.262Z,98396.53
2022-12-11T19:40:43.755Z,98395.19
2022-12-11T19:43:11.236Z,98401.81
2022-12-11T19:45:37.955Z,98398.34
2022-12-11T19:48:05.434Z,98399.69
2022-12-11T19:50:32.097Z,98390.91
2022-12-11T19:52:58.690Z,98400.47
2022-12-11T19:55:26.663Z,98397.03
2022-12-11T19:57:53.246Z,98393.28
2022-12-11T20:00:19.916Z,98391.16
2022-12-11T20:02:46.572Z,98400.22
2022-12-11T20:05:13.432Z,98399.41
2022-12-11T20:07:40.211Z,98402.38
2022-12-11T20:10:07.540Z,98403.94
2022-12-11T20:12:35.558Z,98404.22
2022-12-11T20:15:03.437Z,98402.38
2022-12-11T20:17:30.213Z,98405.03
2022-12-11T20:19:57.006Z,98400.47
2022-12-11T20:22:23.554Z,98395.16
2022-12-11T20:24:50.127Z,98405.03
2022-12-11T20:27:16.867Z,98406.59
2022-12-11T20:29:44.783Z,98408.22
2022-12-11T20:32:11.580Z,98409.00
2022-12-11T20:34:38.385Z,98416.22
2022-12-11T20:37:04.912Z,98411.69
2022-12-11T20:39:31.479Z,98415.16
2022-12-11T20:41:58.011Z,98414.09
2022-12-11T20:44:24.564Z,98419.41
2022-12-11T20:46:52.476Z,98418.63
2022-12-11T20:49:19.088Z,98414.34
2022-12-11T20:51:45.883Z,98411.69
2022-12-11T20:54:12.469Z,98409.28
2022-12-11T20:56:39.035Z,98411.69
2022-12-11T20:59:05.874Z,98400.22
2022-12-11T21:01:33.095Z,98409.81
2022-12-11T21:04:01.146Z,98410.88
2022-12-11T21:06:30.138Z,98403.69
2022-12-11T21:08:57.258Z,98401.81
2022-12-11T21:11:24.483Z,98399.72
2022-12-11T21:13:51.655Z,98399.44
2022-12-11T21:16:19.290Z,98403.72
2022-12-11T21:18:45.868Z,98396.78
2022-12-11T21:21:14.158Z,98395.72
2022-12-11T21:23:41.009Z,98396.53
2022-12-11T21:26:07.614Z,98400.00
2022-12-11T21:28:35.808Z,98402.66
2022-12-11T21:31:04.341Z,98406.91
2022-12-11T21:33:31.347Z,98415.69
2022-12-11T21:35:59.578Z,98415.69
2022-12-11T21:38:28.710Z,98417.56
2022-12-11T21:40:56.363Z,98414.63
2022-12-11T21:43:23.332Z,98413.59
2022-12-11T21:46:05.715Z,98409.31
2022-12-11T21:48:32.423Z,98410.13
2022-12-11T21:51:06.140Z,98413.06
2022-12-11T21:53:34.748Z,98407.75
2022-12-11T21:56:05.163Z,98414.69
2022-12-11T21:58:31.720Z,98413.63
2022-12-11T22:00:58.502Z,98405.63
2022-12-11T22:03:25.239Z,98412.56
2022-12-11T22:05:51.829Z,98408.81
2022-12-11T22:08:18.518Z,98406.94
2022-12-11T22:10:46.464Z,98404.00
2022-12-11T22:13:13.192Z,98409.09
2022-12-11T22:15:39.885Z,98402.41
2022-12-11T22:18:06.629Z,98399.75
2022-12-11T22:20:33.205Z,98399.72
2022-12-11T22:22:59.898Z,98403.47
2022-12-11T22:25:26.511Z,98401.56
2022-12-11T22:27:54.377Z,98408.00
2022-12-11T22:30:20.929Z,98409.84
2022-12-11T22:32:47.469Z,98407.44
2022-12-11T22:35:14.471Z,98415.44
2022-12-11T22:37:41.256Z,98419.16
2022-12-11T22:40:08.440Z,98411.97
2022-12-11T22:42:34.976Z,98413.84
2022-12-11T22:45:03.030Z,98416.50
2022-12-11T22:47:29.586Z,98414.88
2022-12-11T22:49:56.391Z,98418.63
2022-12-11T22:52:22.934Z,98422.09
2022-12-11T22:54:49.457Z,98413.28
2022-12-11T22:57:16.031Z,98415.44
2022-12-11T22:59:42.681Z,98419.97
2022-12-11T23:02:10.641Z,98419.16
2022-12-11T23:04:37.387Z,98410.38
2022-12-11T23:07:04.356Z,98421.03
2022-12-11T23:09:31.169Z,98416.50
2022-12-11T23:11:57.777Z,98413.28
2022-12-11T23:14:24.851Z,98413.28
2022-12-11T23:16:51.442Z,98411.44
2022-12-11T23:19:25.112Z,98419.41
2022-12-11T23:21:52.417Z,98411.69
2022-12-11T23:24:19.075Z,98418.88
2022-12-11T23:26:45.671Z,98420.22
2022-12-11T23:29:12.354Z,98420.22
2022-12-11T23:31:38.853Z,98416.50
2022-12-11T23:34:05.557Z,98420.22
2022-12-11T23:36:33.512Z,98421.81
2022-12-11T23:39:00.111Z,98419.97
2022-12-11T23:41:26.754Z,98426.91
2022-12-11T23:43:53.326Z,98428.75
2022-12-11T23:46:21.770Z,98430.63
2022-12-11T23:48:48.561Z,98437.81
2022-12-11T23:51:18.632Z,98447.41
2022-12-11T23:53:46.898Z,98433.84
2022-12-11T23:56:16.487Z,98434.63
2022-12-11T23:58:43.051Z,98438.09
